ARG1437 SAMR-SABE
Flight info
| Callsign | ARG1437 |
|---|---|
| Flight time | N/A |
| Altitude | 39000 |
| Route | ISELU UM424 ASADA ASADA9R |
| Aircraft | B738/M-SDE2E3FGHIRWXY/LB1 |
Departure
| Time | 2026-05-01 15:09 |
|---|---|
| Airport | Suboficial Ay Santiago Germano Airport (SAMR) |
Arrival
| Time | N/A |
|---|---|
| Airport | Aeroparque Jorge Newbery (SABE) |
| Time | Latitude | Longitude | Altitude | Speed | Heading |
|---|---|---|---|---|---|
| 2026-05-01 14:50 | -34.59082 | -68.40007 | 2445 ft | 0 kts | 289° |
| 2026-05-01 14:53 | -34.59078 | -68.40022 | 2455 ft | 0 kts | 289° |
| 2026-05-01 15:03 | -34.59078 | -68.40023 | 2445 ft | 0 kts | 289° |
| 2026-05-01 15:03 | -34.59074 | -68.40031 | 2445 ft | 2 kts | 295° |
| 2026-05-01 15:03 | -34.59064 | -68.40050 | 2447 ft | 4 kts | 310° |
| 2026-05-01 15:03 | -34.59037 | -68.40067 | 2445 ft | 5 kts | 352° |
| 2026-05-01 15:04 | -34.59009 | -68.40063 | 2451 ft | 6 kts | 11° |
| 2026-05-01 15:04 | -34.58941 | -68.40036 | 2452 ft | 9 kts | 19° |
| 2026-05-01 15:04 | -34.58873 | -68.40042 | 2445 ft | 12 kts | 315° |
| 2026-05-01 15:04 | -34.58851 | -68.40104 | 2445 ft | 12 kts | 286° |
| 2026-05-01 15:05 | -34.58827 | -68.40208 | 2446 ft | 13 kts | 286° |
| 2026-05-01 15:05 | -34.58794 | -68.40311 | 2449 ft | 13 kts | 289° |
| 2026-05-01 15:05 | -34.58764 | -68.40425 | 2443 ft | 15 kts | 288° |
| 2026-05-01 15:05 | -34.58731 | -68.40545 | 2443 ft | 15 kts | 288° |
| 2026-05-01 15:06 | -34.58697 | -68.40663 | 2449 ft | 14 kts | 289° |
| 2026-05-01 15:06 | -34.58668 | -68.40772 | 2451 ft | 14 kts | 288° |
| 2026-05-01 15:06 | -34.58638 | -68.40880 | 2451 ft | 13 kts | 289° |
| 2026-05-01 15:06 | -34.58608 | -68.40983 | 2453 ft | 13 kts | 288° |
| 2026-05-01 15:07 | -34.58579 | -68.41091 | 2451 ft | 15 kts | 288° |
| 2026-05-01 15:07 | -34.58542 | -68.41225 | 2446 ft | 19 kts | 288° |
| 2026-05-01 15:07 | -34.58498 | -68.41384 | 2455 ft | 21 kts | 289° |
| 2026-05-01 15:07 | -34.58477 | -68.41498 | 2445 ft | 11 kts | 271° |
| 2026-05-01 15:08 | -34.58459 | -68.41546 | 2447 ft | 1 kts | 331° |
| 2026-05-01 15:08 | -34.58453 | -68.41538 | 2445 ft | 2 kts | 64° |
| 2026-05-01 15:08 | -34.58462 | -68.41506 | 2452 ft | 0 kts | 108° |
| 2026-05-01 15:08 | -34.58470 | -68.41478 | 2448 ft | 10 kts | 109° |
| 2026-05-01 15:09 | -34.58585 | -68.41070 | 2455 ft | 93 kts | 110° |
| 2026-05-01 15:09 | -34.58871 | -68.40026 | 2479 ft | 162 kts | 117° |
| 2026-05-01 15:09 | -34.59274 | -68.38637 | 3183 ft | 173 kts | 114° |
| 2026-05-01 15:09 | -34.59551 | -68.37295 | 4546 ft | 160 kts | 107° |
| 2026-05-01 15:10 | -34.59816 | -68.35894 | 5098 ft | 184 kts | 108° |
| 2026-05-01 15:10 | -34.60587 | -68.32375 | 5540 ft | 237 kts | 108° |
| 2026-05-01 15:10 | -34.60882 | -68.30312 | 5893 ft | 263 kts | 95° |
| 2026-05-01 15:11 | -34.60811 | -68.27990 | 6369 ft | 285 kts | 88° |
| 2026-05-01 15:11 | -34.60560 | -68.23300 | 8381 ft | 283 kts | 88° |
| 2026-05-01 15:11 | -34.60487 | -68.20873 | 9116 ft | 293 kts | 89° |
| 2026-05-01 15:12 | -34.60464 | -68.18370 | 9951 ft | 299 kts | 90° |
| 2026-05-01 15:12 | -34.60531 | -68.13021 | 10813 ft | 338 kts | 90° |
| 2026-05-01 15:12 | -34.60613 | -68.10128 | 11473 ft | 347 kts | 91° |
| 2026-05-01 15:13 | -34.60960 | -68.01171 | 13804 ft | 364 kts | 91° |
| 2026-05-01 15:14 | -34.61235 | -67.94908 | 15097 ft | 378 kts | 92° |
| 2026-05-01 15:14 | -34.61380 | -67.91687 | 15729 ft | 385 kts | 92° |
| 2026-05-01 15:14 | -34.61678 | -67.85080 | 17018 ft | 399 kts | 92° |
| 2026-05-01 15:15 | -34.61984 | -67.78236 | 18281 ft | 412 kts | 93° |
| 2026-05-01 15:15 | -34.62294 | -67.71203 | 19476 ft | 421 kts | 93° |
| 2026-05-01 15:16 | -34.62605 | -67.64042 | 20703 ft | 428 kts | 93° |
| 2026-05-01 15:16 | -34.62916 | -67.56788 | 21854 ft | 437 kts | 93° |
| 2026-05-01 15:17 | -34.63230 | -67.49342 | 22957 ft | 446 kts | 93° |
| 2026-05-01 15:18 | -34.63704 | -67.37899 | 24469 ft | 457 kts | 93° |
| 2026-05-01 15:18 | -34.63861 | -67.34033 | 24960 ft | 460 kts | 93° |
| 2026-05-01 15:19 | -34.64333 | -67.22287 | 26333 ft | 469 kts | 92° |
| 2026-05-01 15:19 | -34.64645 | -67.14347 | 27265 ft | 473 kts | 92° |
| 2026-05-01 15:19 | -34.64800 | -67.10344 | 27699 ft | 476 kts | 92° |
| 2026-05-01 15:20 | -34.65109 | -67.02268 | 28523 ft | 482 kts | 92° |
| 2026-05-01 15:20 | -34.65264 | -66.98189 | 28935 ft | 484 kts | 92° |
| 2026-05-01 15:20 | -34.65417 | -66.94093 | 29338 ft | 487 kts | 92° |
| 2026-05-01 15:21 | -34.65570 | -66.89981 | 29732 ft | 489 kts | 92° |
| 2026-05-01 15:21 | -34.65723 | -66.85840 | 30163 ft | 490 kts | 91° |
| 2026-05-01 15:21 | -34.65874 | -66.81697 | 30561 ft | 491 kts | 91° |
| 2026-05-01 15:21 | -34.66024 | -66.77551 | 30888 ft | 493 kts | 91° |
| 2026-05-01 15:22 | -34.66322 | -66.69190 | 31469 ft | 498 kts | 91° |
| 2026-05-01 15:22 | -34.66468 | -66.65038 | 31770 ft | 499 kts | 91° |
| 2026-05-01 15:22 | -34.66615 | -66.60806 | 32064 ft | 502 kts | 90° |
| 2026-05-01 15:23 | -34.66761 | -66.56550 | 32221 ft | 507 kts | 90° |
| 2026-05-01 15:23 | -34.66907 | -66.52257 | 32521 ft | 508 kts | 90° |
| 2026-05-01 15:23 | -34.67052 | -66.47972 | 32892 ft | 508 kts | 90° |
| 2026-05-01 15:23 | -34.67196 | -66.43686 | 33302 ft | 506 kts | 90° |
| 2026-05-01 15:24 | -34.67338 | -66.39417 | 33726 ft | 504 kts | 90° |
| 2026-05-01 15:24 | -34.67477 | -66.35164 | 34091 ft | 503 kts | 90° |
| 2026-05-01 15:24 | -34.67615 | -66.30912 | 34359 ft | 504 kts | 90° |
| 2026-05-01 15:24 | -34.67750 | -66.26654 | 34584 ft | 505 kts | 90° |
| 2026-05-01 15:25 | -34.67885 | -66.22383 | 34855 ft | 505 kts | 90° |
| 2026-05-01 15:25 | -34.68018 | -66.18132 | 35209 ft | 503 kts | 90° |
| 2026-05-01 15:25 | -34.68150 | -66.13883 | 35444 ft | 504 kts | 90° |
| 2026-05-01 15:25 | -34.68280 | -66.09623 | 35622 ft | 506 kts | 90° |
| 2026-05-01 15:26 | -34.68409 | -66.05348 | 35849 ft | 507 kts | 90° |
| 2026-05-01 15:26 | -34.68537 | -66.01063 | 36122 ft | 507 kts | 90° |
| 2026-05-01 15:26 | -34.68664 | -65.96792 | 36360 ft | 507 kts | 90° |
| 2026-05-01 15:26 | -34.68789 | -65.92508 | 36575 ft | 508 kts | 90° |
| 2026-05-01 15:27 | -34.68913 | -65.88209 | 36790 ft | 509 kts | 90° |
| 2026-05-01 15:27 | -34.69035 | -65.83905 | 37013 ft | 509 kts | 90° |
| 2026-05-01 15:27 | -34.69156 | -65.79604 | 37247 ft | 510 kts | 90° |
| 2026-05-01 15:28 | -34.69393 | -65.71046 | 37662 ft | 511 kts | 90° |
| 2026-05-01 15:28 | -34.69510 | -65.66726 | 37865 ft | 511 kts | 90° |
| 2026-05-01 15:28 | -34.69625 | -65.62413 | 38100 ft | 512 kts | 90° |
| 2026-05-01 15:29 | -34.69853 | -65.53723 | 38399 ft | 515 kts | 90° |
| 2026-05-01 15:29 | -34.69965 | -65.49371 | 38627 ft | 515 kts | 90° |
| 2026-05-01 15:29 | -34.70186 | -65.40687 | 38950 ft | 515 kts | 90° |
| 2026-05-01 15:30 | -34.70815 | -65.31970 | 38979 ft | 519 kts | 96° |
| 2026-05-01 15:31 | -34.73474 | -65.05979 | 38967 ft | 515 kts | 95° |
| 2026-05-01 15:32 | -34.75069 | -64.88751 | 38968 ft | 514 kts | 95° |
| 2026-05-01 15:34 | -34.77446 | -64.62769 | 38967 ft | 517 kts | 95° |